Grantham, United Kingdom
Current Conditions -  °F | °C
As of 6:50 AM on Friday 19 Dec 2014 (Local Time) from EGYD Reporting Station
Few Clouds Few Clouds  
Wind Chill: 36°   Ceiling: Unl
Heat Index: 45°   Visibility: 6mi
Dew Point: 34°   Wind: 21mph
Humidity: 66%   Direction: 280°W
Pressure: 29.74"   Gusts: NA
Location:  52.92°N, 0.64°W
Report Text: EGYD 190650Z 28018KT 9999 FEW040 07/01 Q1007 BLU NOSIG
Loading
Personal Weather Stations






























Interactive Weather Map New forecast layout! Learn more

10-Day Weather Forecast

Advertisements
Track Severe Weather on mobile